sensor_id;sensor_type;location;lat;lon;timestamp;P1;durP1;ratioP1;P2;durP2;ratioP2
35276;SDS011;21401;50.878;8.050;2022-07-23T00:27:41;15.30;;;10.20;;
35276;SDS011;21401;50.878;8.050;2022-07-23T00:30:15;16.38;;;11.70;;
35276;SDS011;21401;50.878;8.050;2022-07-23T00:32:47;16.25;;;11.05;;
35276;SDS011;21401;50.878;8.050;2022-07-23T00:35:21;19.55;;;12.02;;
35276;SDS011;21401;50.878;8.050;2022-07-23T00:37:47;14.38;;;11.45;;
35276;SDS011;21401;50.878;8.050;2022-07-23T00:40:13;13.43;;;11.07;;
35276;SDS011;21401;50.878;8.050;2022-07-23T00:42:42;14.90;;;11.60;;
35276;SDS011;21401;50.878;8.050;2022-07-23T00:57:06;16.95;;;12.00;;
35276;SDS011;21401;50.878;8.050;2022-07-23T00:59:32;13.50;;;11.15;;
35276;SDS011;21401;50.878;8.050;2022-07-23T01:23:38;17.50;;;12.57;;
35276;SDS011;21401;50.878;8.050;2022-07-23T01:26:05;18.40;;;13.45;;
35276;SDS011;21401;50.878;8.050;2022-07-23T01:28:30;14.25;;;11.57;;
35276;SDS011;21401;50.878;8.050;2022-07-23T01:30:56;17.85;;;12.48;;
35276;SDS011;21401;50.878;8.050;2022-07-23T01:33:21;18.92;;;11.77;;
35276;SDS011;21401;50.878;8.050;2022-07-23T02:30:20;15.38;;;11.45;;
35276;SDS011;21401;50.878;8.050;2022-07-23T02:48:28;15.30;;;11.23;;
35276;SDS011;21401;50.878;8.050;2022-07-23T02:51:00;15.68;;;11.48;;
35276;SDS011;21401;50.878;8.050;2022-07-23T02:56:33;14.10;;;10.35;;
35276;SDS011;21401;50.878;8.050;2022-07-23T03:03:22;13.50;;;10.25;;
35276;SDS011;21401;50.878;8.050;2022-07-23T03:05:47;11.52;;;9.80;;
35276;SDS011;21401;50.878;8.050;2022-07-23T03:08:15;14.07;;;10.10;;
35276;SDS011;21401;50.878;8.050;2022-07-23T03:10:41;11.90;;;9.45;;
35276;SDS011;21401;50.878;8.050;2022-07-23T03:13:06;12.93;;;9.27;;
35276;SDS011;21401;50.878;8.050;2022-07-23T03:15:34;13.27;;;9.68;;
35276;SDS011;21401;50.878;8.050;2022-07-23T03:35:54;11.98;;;9.65;;
35276;SDS011;21401;50.878;8.050;2022-07-23T03:38:54;11.10;;;8.70;;
35276;SDS011;21401;50.878;8.050;2022-07-23T03:41:34;12.02;;;9.70;;
35276;SDS011;21401;50.878;8.050;2022-07-23T03:44:06;12.02;;;9.75;;
35276;SDS011;21401;50.878;8.050;2022-07-23T03:46:43;13.85;;;9.60;;
35276;SDS011;21401;50.878;8.050;2022-07-23T03:56:42;13.07;;;9.95;;
35276;SDS011;21401;50.878;8.050;2022-07-23T03:59:16;14.85;;;9.93;;
35276;SDS011;21401;50.878;8.050;2022-07-23T04:01:50;13.88;;;9.50;;
35276;SDS011;21401;50.878;8.050;2022-07-23T04:10:05;14.98;;;10.43;;
35276;SDS011;21401;50.878;8.050;2022-07-23T04:12:32;14.35;;;9.43;;
35276;SDS011;21401;50.878;8.050;2022-07-23T04:14:58;11.02;;;8.77;;
35276;SDS011;21401;50.878;8.050;2022-07-23T04:17:23;13.43;;;9.40;;
35276;SDS011;21401;50.878;8.050;2022-07-23T04:20:09;13.88;;;9.63;;
35276;SDS011;21401;50.878;8.050;2022-07-23T04:22:44;15.15;;;9.60;;
35276;SDS011;21401;50.878;8.050;2022-07-23T04:25:11;12.52;;;9.63;;
35276;SDS011;21401;50.878;8.050;2022-07-23T04:27:41;10.90;;;9.45;;
35276;SDS011;21401;50.878;8.050;2022-07-23T04:30:06;15.23;;;11.40;;
35276;SDS011;21401;50.878;8.050;2022-07-23T04:32:33;11.68;;;9.65;;
35276;SDS011;21401;50.878;8.050;2022-07-23T04:35:01;16.60;;;9.70;;
35276;SDS011;21401;50.878;8.050;2022-07-23T04:37:32;13.60;;;8.90;;
35276;SDS011;21401;50.878;8.050;2022-07-23T04:40:02;12.18;;;8.73;;
35276;SDS011;21401;50.878;8.050;2022-07-23T04:42:50;13.23;;;9.38;;
35276;SDS011;21401;50.878;8.050;2022-07-23T04:45:19;13.48;;;9.27;;
35276;SDS011;21401;50.878;8.050;2022-07-23T04:47:51;10.68;;;8.05;;
35276;SDS011;21401;50.878;8.050;2022-07-23T04:50:18;10.25;;;8.25;;
35276;SDS011;21401;50.878;8.050;2022-07-23T04:52:46;11.68;;;8.63;;
35276;SDS011;21401;50.878;8.050;2022-07-23T04:55:21;11.82;;;9.10;;
35276;SDS011;21401;50.878;8.050;2022-07-23T04:57:47;12.43;;;9.32;;
35276;SDS011;21401;50.878;8.050;2022-07-23T05:00:16;12.85;;;9.18;;
35276;SDS011;21401;50.878;8.050;2022-07-23T05:02:44;9.93;;;8.32;;
35276;SDS011;21401;50.878;8.050;2022-07-23T05:05:29;11.35;;;9.18;;
35276;SDS011;21401;50.878;8.050;2022-07-23T05:08:00;13.93;;;9.70;;
35276;SDS011;21401;50.878;8.050;2022-07-23T05:51:31;12.48;;;9.30;;
35276;SDS011;21401;50.878;8.050;2022-07-23T05:53:57;15.25;;;10.57;;
35276;SDS011;21401;50.878;8.050;2022-07-23T05:56:33;10.23;;;8.90;;
35276;SDS011;21401;50.878;8.050;2022-07-23T05:59:37;12.32;;;9.70;;
35276;SDS011;21401;50.878;8.050;2022-07-23T06:02:18;12.23;;;8.98;;
35276;SDS011;21401;50.878;8.050;2022-07-23T06:15:33;13.65;;;7.75;;
35276;SDS011;21401;50.878;8.050;2022-07-23T06:21:59;13.05;;;8.10;;
35276;SDS011;21401;50.878;8.050;2022-07-23T07:21:40;12.45;;;8.15;;
35276;SDS011;21401;50.878;8.050;2022-07-23T07:36:33;8.52;;;5.75;;
35276;SDS011;21401;50.878;8.050;2022-07-23T07:39:03;9.10;;;6.07;;
35276;SDS011;21401;50.878;8.050;2022-07-23T07:41:30;7.03;;;6.03;;
35276;SDS011;21401;50.878;8.050;2022-07-23T07:44:13;6.03;;;5.13;;
35276;SDS011;21401;50.878;8.050;2022-07-23T07:46:38;8.50;;;5.78;;
35276;SDS011;21401;50.878;8.050;2022-07-23T07:49:07;7.22;;;5.90;;
35276;SDS011;21401;50.878;8.050;2022-07-23T07:51:33;8.60;;;5.45;;
35276;SDS011;21401;50.878;8.050;2022-07-23T07:53:59;7.18;;;5.57;;
35276;SDS011;21401;50.878;8.050;2022-07-23T07:56:25;9.75;;;5.03;;
35276;SDS011;21401;50.878;8.050;2022-07-23T07:58:50;6.57;;;4.80;;
35276;SDS011;21401;50.878;8.050;2022-07-23T08:01:16;6.03;;;4.50;;
35276;SDS011;21401;50.878;8.050;2022-07-23T08:03:42;6.00;;;3.80;;
35276;SDS011;21401;50.878;8.050;2022-07-23T08:09:22;5.78;;;3.83;;
35276;SDS011;21401;50.878;8.050;2022-07-23T08:11:48;5.20;;;3.35;;
35276;SDS011;21401;50.878;8.050;2022-07-23T08:16:56;5.60;;;3.85;;
35276;SDS011;21401;50.878;8.050;2022-07-23T08:19:24;4.40;;;3.22;;
35276;SDS011;21401;50.878;8.050;2022-07-23T08:21:50;5.65;;;3.28;;
35276;SDS011;21401;50.878;8.050;2022-07-23T08:24:16;5.38;;;3.15;;
35276;SDS011;21401;50.878;8.050;2022-07-23T08:26:43;5.72;;;2.97;;
35276;SDS011;21401;50.878;8.050;2022-07-23T08:29:09;5.20;;;2.90;;
35276;SDS011;21401;50.878;8.050;2022-07-23T08:31:35;5.30;;;2.88;;
35276;SDS011;21401;50.878;8.050;2022-07-23T08:34:00;4.57;;;2.85;;
35276;SDS011;21401;50.878;8.050;2022-07-23T08:36:42;3.10;;;2.80;;
35276;SDS011;21401;50.878;8.050;2022-07-23T08:39:08;3.88;;;2.90;;
35276;SDS011;21401;50.878;8.050;2022-07-23T08:41:33;3.38;;;2.35;;
35276;SDS011;21401;50.878;8.050;2022-07-23T08:59:31;2.78;;;1.65;;
35276;SDS011;21401;50.878;8.050;2022-07-23T09:01:59;5.25;;;2.05;;
35276;SDS011;21401;50.878;8.050;2022-07-23T09:36:03;2.60;;;1.90;;
35276;SDS011;21401;50.878;8.050;2022-07-23T09:38:23;4.32;;;2.00;;
35276;SDS011;21401;50.878;8.050;2022-07-23T09:41:06;2.85;;;1.88;;
35276;SDS011;21401;50.878;8.050;2022-07-23T09:43:35;3.65;;;1.90;;
35276;SDS011;21401;50.878;8.050;2022-07-23T09:51:14;2.05;;;1.60;;
35276;SDS011;21401;50.878;8.050;2022-07-23T10:14:02;2.63;;;2.25;;
35276;SDS011;21401;50.878;8.050;2022-07-23T10:16:33;2.78;;;1.95;;
35276;SDS011;21401;50.878;8.050;2022-07-23T10:18:58;2.97;;;1.80;;
35276;SDS011;21401;50.878;8.050;2022-07-23T10:21:30;1.58;;;1.40;;
35276;SDS011;21401;50.878;8.050;2022-07-23T10:57:46;3.47;;;2.15;;
35276;SDS011;21401;50.878;8.050;2022-07-23T11:00:37;2.60;;;2.17;;
35276;SDS011;21401;50.878;8.050;2022-07-23T11:03:02;3.67;;;2.17;;
35276;SDS011;21401;50.878;8.050;2022-07-23T12:01:18;4.93;;;2.53;;
35276;SDS011;21401;50.878;8.050;2022-07-23T12:50:34;4.22;;;2.95;;
35276;SDS011;21401;50.878;8.050;2022-07-23T12:53:05;5.97;;;3.33;;
35276;SDS011;21401;50.878;8.050;2022-07-23T13:52:29;5.68;;;3.42;;
35276;SDS011;21401;50.878;8.050;2022-07-23T13:54:58;5.43;;;3.03;;
35276;SDS011;21401;50.878;8.050;2022-07-23T13:57:23;5.13;;;3.20;;
35276;SDS011;21401;50.878;8.050;2022-07-23T13:59:49;5.25;;;3.13;;
35276;SDS011;21401;50.878;8.050;2022-07-23T14:02:17;4.43;;;3.13;;
35276;SDS011;21401;50.878;8.050;2022-07-23T14:50:18;7.28;;;3.53;;
35276;SDS011;21401;50.878;8.050;2022-07-23T14:52:47;6.07;;;3.58;;
35276;SDS011;21401;50.878;8.050;2022-07-23T18:45:58;6.70;;;4.22;;
35276;SDS011;21401;50.878;8.050;2022-07-23T18:48:35;6.13;;;3.97;;
35276;SDS011;21401;50.878;8.050;2022-07-23T18:51:01;6.28;;;3.50;;
35276;SDS011;21401;50.878;8.050;2022-07-23T18:53:28;3.92;;;3.30;;
